Liverpool John Lennon Airport

EGGP · England, United Kingdom

October 2, 2022

Time Code Weather Temp. Visibility Ceiling Wind METAR/SPECI
00:20
V
13 °C 10 km+ - 240° 240° 9 kt METAR EGGP 012320Z 24009KT 9999 FEW033 13/09 Q1012

October 1, 2022

Time Code Weather Temp. Visibility Ceiling Wind METAR/SPECI
23:50
V
14 °C 10 km+ - 240° 240° 10 kt METAR EGGP 012250Z 24010KT 9999 FEW033 14/09 Q1012
23:20
V
14 °C 10 km+ - 220° 220° 11 kt METAR EGGP 012220Z 22011KT 9999 FEW048 14/09 Q1011
22:50
V
13 °C 10 km+ - 210° 210° 13 kt METAR EGGP 012150Z 21013KT 9999 FEW048 13/09 Q1011
22:20
V
13 °C 10 km+ - 200° 200° 11 kt METAR EGGP 012120Z 20011KT CAVOK 13/09 Q1010
21:50
V
13 °C 10 km+ - 210° 210° 9 kt METAR EGGP 012050Z 21009KT CAVOK 13/09 Q1010
21:20
V
13 °C 10 km+ - 210° 210° 9 kt METAR EGGP 012020Z 21009KT 9999 FEW038 13/10 Q1010
20:50
V
13 °C 10 km+ - 250° 250° 11 kt METAR EGGP 011950Z 25011KT 9999 FEW038 13/10 Q1009
20:20
V
14 °C 10 km+ - 240° 240° 8 kt METAR EGGP 011920Z 24008KT 9999 FEW038 14/11 Q1009
19:50
V
14 °C 10 km+ - 230° 230° 8 kt METAR EGGP 011850Z 23008KT 9999 SCT040 14/11 Q1009
19:20
V
14 °C 10 km+ - 250° 250° 9 kt METAR EGGP 011820Z 25009KT 9999 SCT040 14/10 Q1008
18:50
V
14 °C 10 km+ - 240° 240° 7 kt METAR EGGP 011750Z 24007KT 9999 FEW030 14/10 Q1008
18:20
V
14 °C 10 km+ - 270° 270° 11 kt METAR EGGP 011720Z 27011KT 9999 VCSH FEW018 SCT030 14/11 Q1008
17:50
V
16 °C 10 km+ - 230° 230° 15 kt METAR EGGP 011650Z 23015KT 9999 7000N VCSH FEW030 SCT040 16/10 Q1007
17:20
V
17 °C 10 km+ - 240° 240° 20 kt METAR EGGP 011620Z 24020KT 9999 FEW041 SCT048 17/10 Q1007
16:50
V
16 °C 10 km+ - 240° 240° 11 kt METAR EGGP 011550Z 24011KT 9999 FEW041 SCT048 16/10 Q1006
16:20
V
17 °C 10 km+ - 240° 240° 11 kt METAR EGGP 011520Z 24011KT 9999 FEW041 SCT045 17/10 Q1006
15:50
V
17 °C 10 km+ - 260° 260° 11 kt METAR EGGP 011450Z 26011KT 9999 FEW041 SCT048 17/09 Q1006
15:20
V
17 °C 10 km+ - 280° 280° 15 kt METAR EGGP 011420Z 28015KT 9999 FEW034 SCT049 17/08 Q1006
14:50
V
18 °C 10 km+ - 280° 280° 20 kt METAR EGGP 011350Z 28020KT 9999 FEW034 SCT046 18/08 Q1006
14:20
V
18 °C 10 km+ - 270° 270° 18 kt METAR EGGP 011320Z 27018KT 9999 FEW034 SCT046 18/08 Q1006
13:50
V
18 °C 10 km+ - 250° 250° 13 kt METAR EGGP 011250Z 25013KT 9999 FEW034 SCT040 18/10 Q1005
13:20
V
17 °C 10 km+ - 250° 250° 14 kt METAR EGGP 011220Z 25014KT 9999 FEW037 SCT044 17/10 Q1005
12:50
V
17 °C 10 km+ - 260° 260° 18 kt METAR EGGP 011150Z 26018KT 9999 FEW038 SCT046 17/08 Q1005
12:20
V
18 °C 10 km+ - 260° 260° 17 kt METAR EGGP 011120Z 26017KT 9999 FEW035 SCT045 18/09 Q1005
11:50
V
17 °C 10 km+ - 250° 250° 18 kt METAR EGGP 011050Z 25018KT 9999 FEW030 SCT035 17/09 Q1004
11:20
V
16 °C 10 km+ - 250° 250° 20 kt METAR EGGP 011020Z 25020KT 9999 FEW035 16/09 Q1004
10:50
V
16 °C 10 km+ - 240° 240° 15 kt METAR EGGP 010950Z 24015KT 210V270 9999 FEW035 16/09 Q1003
10:20
V
15 °C 10 km+ - 250° 250° 14 kt METAR EGGP 010920Z 25014KT CAVOK 15/09 Q1003
09:50
V
15 °C 10 km+ - 250° 250° 12 kt METAR EGGP 010850Z 25012KT 9999 FEW035 15/10 Q1003
09:20
V
14 °C 10 km+ - 230° 230° 15 kt METAR EGGP 010820Z 23015KT 9999 FEW032 14/09 Q1002
08:50
V
13 °C 10 km+ - 230° 230° 13 kt METAR EGGP 010750Z 23013KT 9999 FEW032 13/09 Q1002
08:20
V
13 °C 10 km+ - 220° 220° 12 kt METAR EGGP 010720Z 22012KT 9999 FEW020 SCT032 13/09 Q1001
07:50
V
13 °C 10 km+ - 200° 200° 11 kt METAR EGGP 010650Z 20011KT 9999 SCT024 13/09 Q1001
07:20
V
11 °C 10 km+ - 200° 200° 10 kt METAR EGGP 010620Z 20010KT 9999 FEW024 11/09 Q1001
06:50
V
12 °C 10 km+ - 220° 220° 9 kt METAR EGGP 010550Z 22009KT 9999 FEW024 12/09 Q1000
06:20
V
13 °C 10 km+ - 210° 210° 11 kt METAR EGGP 010520Z 21011KT 9999 SCT022 13/09 Q1000
05:50
V
13 °C 10 km+ - 230° 230° 12 kt METAR EGGP 010450Z 23012KT 9999 SCT022 13/09 Q0999
05:20
V
13 °C 10 km+ - 240° 240° 15 kt METAR EGGP 010420Z AUTO 24015KT 9999 NCD 13/09 Q0999
04:50
V
12 °C 10 km+ - 230° 230° 12 kt METAR EGGP 010350Z AUTO 23012KT 9999 SCT031/// 12/09 Q0999
04:20
V
13 °C 10 km+ 3,400 ft 240° 240° 9 kt METAR EGGP 010320Z AUTO 24009KT 9999 BKN034/// BKN040/// 13/10 Q0998
03:50
V
13 °C 10 km+ - 260° 260° 11 kt METAR EGGP 010250Z AUTO 26011KT 9999 NCD 13/10 Q0998
03:20
V
13 °C 10 km+ - 270° 270° 16 kt METAR EGGP 010220Z 27016KT CAVOK 13/10 Q0998
02:50
V
13 °C 10 km+ - 260° 260° 14 kt METAR EGGP 010150Z 26014KT CAVOK 13/10 Q0998
02:20
V
13 °C 10 km+ - 250° 250° 14 kt METAR EGGP 010120Z 25014KT CAVOK 13/10 Q0997
01:50
V
14 °C 10 km+ - 260° 260° 19 kt METAR EGGP 010050Z 26019KT 9999 FEW026 14/10 Q0997
01:20
V
13 °C 10 km+ - 260° 260° 17 - 27 kt METAR EGGP 010020Z 26017G27KT 9999 FEW026 13/10 Q0996
00:50
V
13 °C 10 km+ - 210° 210° 12 kt METAR EGGP 302350Z 21012KT 9999 SCT034 13/10 Q0996
00:20
V
13 °C 10 km+ - 230° 230° 10 kt METAR EGGP 302320Z 23010KT 9999 SCT034 13/10 Q0996

September 30, 2022

Time Code Weather Temp. Visibility Ceiling Wind METAR/SPECI
23:50
V
12 °C 10 km+ - 240° 240° 9 kt METAR EGGP 302250Z 24009KT CAVOK 12/10 Q0996
23:20
V
13 °C 10 km+ - 240° 240° 10 kt METAR EGGP 302220Z 24010KT CAVOK 13/11 Q0996
22:50
V
12 °C 10 km+ - 210° 210° 8 kt METAR EGGP 302150Z 21008KT CAVOK 12/10 Q0995
22:20
V
12 °C 10 km+ - 230° 230° 8 kt METAR EGGP 302120Z 23008KT CAVOK 12/10 Q0995
21:50
V
13 °C 10 km+ - 260° 260° 11 kt METAR EGGP 302050Z 26011KT 9999 FEW045 13/11 Q0995
21:20
V
12 °C 10 km+ - 260° 260° 10 kt METAR EGGP 302020Z 26010KT 9999 FEW045 12/10 Q0995
20:50
V
13 °C 10 km+ - 250° 250° 7 kt METAR EGGP 301950Z 25007KT 9999 FEW045 13/11 Q0995
20:20
V
13 °C 10 km+ - 250° 250° 8 kt METAR EGGP 301920Z 25008KT 9999 FEW045 13/12 Q0995
19:50
V
13 °C 10 km+ - 260° 260° 9 kt METAR EGGP 301850Z 26009KT 9999 FEW030 SCT045 13/11 Q0995
19:20
V
14 °C 10 km+ - 260° 260° 9 kt METAR EGGP 301820Z 26009KT 9999 FEW030 SCT045 14/12 Q0994
18:50
V
15 °C 10 km+ - 270° 270° 10 kt METAR EGGP 301750Z 27010KT 9999 FEW030 SCT045 15/12 Q0994
18:20
V
15 °C 10 km+ - 280° 280° 9 kt METAR EGGP 301720Z 28009KT 9999 VCSH FEW012 SCT020 15/13 Q0994
17:50
V
16 °C 10 km+ - 270° 270° 14 kt METAR EGGP 301650Z 27014KT 9999 VCSH FEW012 SCT020 16/13 Q0994
17:20
M
16 °C 10 km+ 1,900 ft 260° 260° 13 kt METAR EGGP 301620Z 26013KT 9999 VCSH SCT012 BKN019 16/15 Q0993
16:50
M
14 °C 10 km+ 1,900 ft 190° 190° 12 kt METAR EGGP 301550Z 19012KT 9999 VCSH SCT012 BKN019 14/13 Q0993 RESHRA
16:20
M
14 °C 5 km 1,700 ft 190° 190° 19 kt METAR EGGP 301520Z 19019KT 5000 SHRA SCT010 BKN017 14/13 Q0992
15:50
M
14 °C 6 km 2,400 ft 180° 180° 18 kt METAR EGGP 301450Z 18018KT 6000 SHRA FEW004 SCT008 BKN024 14/13 Q0992
15:20
V
13 °C 10 km+ 3,800 ft 180° 180° 22 kt METAR EGGP 301420Z 18022KT 9999 FEW004 SCT008 BKN038 13/12 Q0993
14:50
M
13 °C 9 km 2,800 ft 170° 170° 23 kt METAR EGGP 301350Z 17023KT 9000 -RA FEW004 SCT009 BKN028 13/13 Q0993 RERA
14:20
M
13 °C 5 km 2,000 ft 170° 170° 22 kt METAR EGGP 301320Z 17022KT 5000 RA SCT010 BKN020 13/12 Q0995
13:50
V
13 °C 8 km 3,000 ft 160° 160° 18 kt METAR EGGP 301250Z 16018KT 8000 -SHRA FEW014 SCT020 BKN030 13/11 Q0996
13:20
M
13 °C 7 km 3,100 ft 160° 160° 20 - 31 kt METAR EGGP 301220Z 16020G31KT 7000 SHRA FEW020 SCT025 BKN031 13/11 Q0996
12:50
M
13 °C 5 km 2,000 ft 180° 180° 17 kt METAR EGGP 301150Z 18017KT 5000 SHRA SCT010 BKN020 13/12 Q0998
12:20
M
12 °C 6 km 2,500 ft 170° 170° 16 kt METAR EGGP 301120Z 17016KT 6000 SHRA SCT008 BKN025 12/12 Q0998
11:50
M
13 °C 6 km 3,300 ft 170° 170° 14 kt METAR EGGP 301050Z 17014KT 6000 -SHRA FEW010 SCT020 BKN033 13/12 Q0999
11:20
V
13 °C 8 km 3,500 ft 170° 170° 14 kt METAR EGGP 301020Z 17014KT 8000 -SHRA FEW015 BKN035 13/11 Q1000
10:50
M
12 °C 8 km 2,500 ft 170° 170° 14 kt METAR EGGP 300950Z 17014KT 8000 -RA SCT012 BKN025 12/11 Q1000
10:20
M
12 °C 8 km 2,000 ft 160° 160° 15 kt METAR EGGP 300920Z 16015KT 8000 -RA SCT012 BKN020 12/10 Q1001
09:50
V
12 °C 10 km+ - 160° 160° 16 kt METAR EGGP 300850Z 16016KT 9999 FEW024 SCT040 12/10 Q1002
09:20
V
11 °C 10 km+ - 160° 160° 13 kt METAR EGGP 300820Z 16013KT 9999 FEW035 11/10 Q1003
08:50
V
11 °C 10 km+ - 160° 160° 13 kt METAR EGGP 300750Z 16013KT 9999 FEW049 11/09 Q1003
08:20
V
10 °C 10 km+ - 170° 170° 15 kt METAR EGGP 300720Z 17015KT 9999 SCT049 10/09 Q1004
07:50
V
10 °C 10 km+ - 170° 170° 12 kt METAR EGGP 300650Z 17012KT 9999 SCT049 10/09 Q1004
07:20
V
11 °C 10 km+ - 160° 160° 13 kt METAR EGGP 300620Z 16013KT 9999 SCT049 11/10 Q1005
06:50
V
10 °C 10 km+ - 160° 160° 11 kt METAR EGGP 300550Z 16011KT CAVOK 10/09 Q1005
06:20
V
10 °C 10 km+ - 160° 160° 12 kt METAR EGGP 300520Z 16012KT CAVOK 10/09 Q1005
05:50
V
10 °C 10 km+ - 150° 150° 11 kt METAR EGGP 300450Z 15011KT CAVOK 10/09 Q1006
05:20
V
11 °C 10 km+ - 160° 160° 11 kt METAR EGGP 300420Z 16011KT CAVOK 11/10 Q1007
04:50
V
10 °C 10 km+ - 150° 150° 9 kt METAR EGGP 300350Z 15009KT 110V180 CAVOK 10/09 Q1007
04:20
V
9 °C 10 km+ - Var Var 4 kt METAR EGGP 300320Z VRB04KT CAVOK 09/09 Q1007
03:50
V
9 °C 10 km+ - 110° 110° 4 kt METAR EGGP 300250Z 11004KT CAVOK 09/09 Q1008
03:20
V
10 °C 10 km+ - 130° 130° 4 kt METAR EGGP 300220Z 13004KT 070V190 CAVOK 10/09 Q1008
02:50
V
9 °C 10 km+ - 130° 130° 5 kt METAR EGGP 300150Z 13005KT 070V190 CAVOK 09/09 Q1009
02:20
V
9 °C 10 km+ - 170° 170° 4 kt METAR EGGP 300120Z 17004KT 150V210 CAVOK 09/09 Q1009
01:50
V
9 °C 10 km+ - 130° 130° 3 kt METAR EGGP 300050Z 13003KT CAVOK 09/09 Q1009
01:20
V
9 °C 10 km+ - 120° 120° 3 kt METAR EGGP 300020Z 12003KT CAVOK 09/08 Q1009
00:50
V
9 °C 10 km+ - 090° 090° 4 kt METAR EGGP 292350Z 09004KT CAVOK 09/08 Q1009
00:20
V
9 °C 10 km+ - 120° 120° 4 kt METAR EGGP 292320Z 12004KT 090V170 CAVOK 09/09 Q1009

September 29, 2022

Time Code Weather Temp. Visibility Ceiling Wind METAR/SPECI
23:50
V
8 °C 10 km+ - 090° 090° 7 kt METAR EGGP 292250Z 09007KT CAVOK 08/07 Q1009
23:20
V
9 °C 10 km+ - 100° 100° 5 kt METAR EGGP 292220Z 10005KT CAVOK 09/08 Q1010
22:50
V
10 °C 10 km+ - 090° 090° 4 kt METAR EGGP 292150Z 09004KT CAVOK 10/08 Q1010
22:20
V
10 °C 10 km+ - Var Var 2 kt METAR EGGP 292120Z VRB02KT CAVOK 10/08 Q1010
21:50
V
11 °C 10 km+ - 070° 070° 6 kt METAR EGGP 292050Z 07006KT CAVOK 11/09 Q1010
21:20
V
11 °C 10 km+ - 100° 100° 4 kt METAR EGGP 292020Z 10004KT CAVOK 11/09 Q1010
20:50
V
12 °C 10 km+ - 050° 050° 3 kt METAR EGGP 291950Z 05003KT CAVOK 12/09 Q1010
20:20
V
12 °C 10 km+ - 080° 080° 4 kt METAR EGGP 291920Z 08004KT CAVOK 12/09 Q1010
19:50
V
12 °C 10 km+ - 090° 090° 6 kt METAR EGGP 291850Z 09006KT CAVOK 12/09 Q1009
19:20
V
13 °C 10 km+ - 070° 070° 6 kt METAR EGGP 291820Z 07006KT 9999 FEW042 13/09 Q1009
18:50
V
14 °C 10 km+ - 050° 050° 5 kt METAR EGGP 291750Z 05005KT 9999 FEW037 14/10 Q1009
18:20
V
15 °C 10 km+ - 070° 070° 6 kt METAR EGGP 291720Z 07006KT 9999 VCSH FEW007CB FEW030 SCT038 15/12 Q1009
17:50
V
16 °C 10 km+ - 050° 050° 6 kt METAR EGGP 291650Z 05006KT 9999 FEW030 SCT038 16/10 Q1008
17:20
V
16 °C 10 km+ - Var Var 2 kt METAR EGGP 291620Z VRB02KT 9999 FEW030 SCT038 16/11 Q1008
16:50
V
16 °C 10 km+ - Var Var 3 kt METAR EGGP 291550Z VRB03KT 9999 FEW030 SCT036 16/11 Q1007
16:20
V
17 °C 10 km+ - Var Var 3 kt METAR EGGP 291520Z VRB03KT 9999 FEW028 SCT036 17/12 Q1007
15:50
V
16 °C 10 km+ - 070° 070° 3 kt METAR EGGP 291450Z 07003KT 040V120 9999 FEW028 SCT036 16/11 Q1007
Older data

We and third parties follow your internet behavior on our website with cookies. If you continue, we assume you agree with our cookie policy. Learn more